Terminal Aerodrome Forecast
Issued by NWS Charleston, SC

Home | Current Version | Previous Version | Text Only | Print | Product List | Glossary On
Versions: 1 2 3 4 5 6 7 8 9 10 11 12 13 14 15 16 17 18 19 20 21
000
FTUS42 KCHS 210700 AAA
TAFSAV
TAF AMD
KSAV 210701Z 2107/2206 03008KT P6SM VCSH OVC006
      TEMPO 2108/2112 5SM -RA BR OVC005
     FM211200 02007KT 5SM -RA BKN007 OVC012
     FM211800 02008KT 6SM -RA SCT006 OVC012
     FM220000 03005KT 3SM BR VCSH OVC005=

USA.gov is the U.S. government's official web portal to all federal, state and local government web resources and services.